Time;durP1;ratioP1;P1;durP2;ratioP2;P2;SDS_P1;SDS_P2;PMS_P1;PMS_P2;Temp;Humidity;BMP_temperature;BMP_pressure;BME280_temperature;BME280_humidity;BME280_pressure;Samples;Min_cycle;Max_cycle;Signal;HPM_P1;HPM_P2
2022/08/25 00:00:49;;;;;;;5.43;3.70;;;;;;;19.65;91.74;100993.50;6230426;28;20136;-87
2022/08/25 00:03:51;;;;;;;5.10;3.80;;;;;;;19.59;91.72;100992.34;6207636;28;20559;-86
2022/08/25 00:06:54;;;;;;;5.43;4.07;;;;;;;19.54;92.87;100992.03;6190451;28;20069;-86
2022/08/25 00:10:05;;;;;;;6.77;4.00;;;;;;;19.47;93.89;100983.19;6201240;28;20462;-87
2022/08/25 00:13:06;;;;;;;5.30;3.88;;;;;;;19.43;93.67;100992.41;6222739;28;20045;-86
2022/08/25 00:16:15;;;;;;;6.18;4.13;;;;;;;19.39;94.40;100996.34;6200767;28;20049;-86
2022/08/25 00:19:24;;;;;;;5.60;4.47;;;;;;;19.34;95.41;100991.59;6217120;28;20047;-87
2022/08/25 00:22:25;;;;;;;6.30;3.70;;;;;;;19.29;96.00;100991.25;6199807;28;20072;-87
2022/08/25 00:25:27;;;;;;;5.57;3.75;;;;;;;19.26;96.23;100996.03;6221237;28;20034;-86
2022/08/25 00:28:29;;;;;;;7.78;4.45;;;;;;;19.20;96.09;100989.63;6189857;28;20038;-86
2022/08/25 00:31:31;;;;;;;7.15;4.28;;;;;;;19.15;97.54;100989.31;6210544;28;20423;-86
2022/08/25 00:34:39;;;;;;;10.25;4.63;;;;;;;19.09;96.59;100985.56;6211341;28;20479;-87
2022/08/25 00:37:41;;;;;;;7.32;4.10;;;;;;;19.03;96.02;100986.22;6200710;28;20567;-86
2022/08/25 00:40:43;;;;;;;4.97;4.00;;;;;;;18.97;96.23;100986.06;6198098;28;20066;-87
2022/08/25 00:44:11;;;;;;;7.45;4.50;;;;;;;18.91;96.24;100985.72;6211069;28;20042;-86
2022/08/25 00:47:13;;;;;;;9.05;4.35;;;;;;;18.86;96.96;100985.41;6187092;28;20509;-87
2022/08/25 00:50:16;;;;;;;7.47;4.82;;;;;;;18.83;97.55;100982.28;6207973;28;20507;-86
2022/08/25 00:53:18;;;;;;;6.25;4.75;;;;;;;18.79;97.17;100981.78;6206120;28;20053;-86
2022/08/25 00:56:20;;;;;;;6.38;4.72;;;;;;;18.76;98.36;100983.91;6204071;28;20046;-87
2022/08/25 00:59:25;;;;;;;6.63;4.65;;;;;;;18.70;99.39;100980.94;6195767;28;20034;-86
2022/08/25 01:02:26;;;;;;;6.18;4.57;;;;;;;18.67;98.62;100980.44;6197448;28;20046;-86
2022/08/25 01:05:29;;;;;;;8.35;5.07;;;;;;;18.62;98.34;100980.13;6202019;28;20041;-86
2022/08/25 01:08:32;;;;;;;5.43;4.45;;;;;;;18.59;98.97;100977.81;6199325;28;20066;-86
2022/08/25 01:11:34;;;;;;;5.68;4.28;;;;;;;18.55;99.68;100977.31;6204563;28;20038;-86
2022/08/25 01:14:37;;;;;;;5.93;4.80;;;;;;;18.51;99.82;100976.81;6190459;28;20048;-87
2022/08/25 01:17:54;;;;;;;7.43;4.30;;;;;;;18.48;99.92;100976.31;6199414;28;20050;-86
2022/08/25 01:20:58;;;;;;;9.05;4.38;;;;;;;18.42;100.00;100975.16;6210904;28;20041;-87
2022/08/25 01:24:00;;;;;;;7.22;4.60;;;;;;;18.39;100.00;100978.13;6197466;28;20840;-86
2022/08/25 01:27:02;;;;;;;7.90;4.15;;;;;;;18.34;100.00;100974.34;6197745;28;20056;-86
2022/08/25 01:30:05;;;;;;;8.80;5.10;;;;;;;18.28;100.00;100975.78;6216715;28;20061;-86
2022/08/25 01:33:10;;;;;;;6.85;4.68;;;;;;;18.23;100.00;100972.81;6214861;28;20053;-86
2022/08/25 01:36:17;;;;;;;13.43;4.88;;;;;;;18.20;100.00;100973.97;6198547;28;20462;-86
2022/08/25 01:39:19;;;;;;;6.35;4.60;;;;;;;18.14;100.00;100981.66;6198044;28;20049;-86
2022/08/25 01:42:27;;;;;;;7.72;4.68;;;;;;;18.07;100.00;100982.28;6204750;28;20120;-86
2022/08/25 01:45:29;;;;;;;6.72;4.40;;;;;;;18.03;100.00;100977.53;6201839;28;20038;-86
2022/08/25 01:48:31;;;;;;;9.07;4.68;;;;;;;17.98;100.00;100972.75;6211683;28;20487;-86
2022/08/25 01:51:41;;;;;;;8.18;4.50;;;;;;;17.92;100.00;100977.81;6206823;28;20049;-86
2022/08/25 01:54:43;;;;;;;5.68;4.65;;;;;;;17.86;100.00;100982.72;6197552;28;20452;-86
2022/08/25 01:57:45;;;;;;;7.82;4.80;;;;;;;17.83;100.00;100980.41;6209451;28;20549;-86
2022/08/25 02:00:48;;;;;;;6.45;4.70;;;;;;;17.81;100.00;100985.00;6206890;28;20045;-86
2022/08/25 02:03:52;;;;;;;6.75;5.00;;;;;;;17.79;100.00;100986.91;6199573;28;20030;-86
2022/08/25 02:06:54;;;;;;;9.45;5.10;;;;;;;17.78;100.00;100985.25;6193785;28;20077;-86
2022/08/25 02:09:56;;;;;;;8.40;4.55;;;;;;;17.76;100.00;100968.91;6201593;28;20085;-87
2022/08/25 02:13:04;;;;;;;9.77;4.53;;;;;;;17.75;100.00;100977.72;6208629;28;20443;-86
2022/08/25 02:16:16;;;;;;;9.82;5.18;;;;;;;17.74;100.00;100978.72;6206806;28;20061;-86
2022/08/25 02:19:23;;;;;;;7.35;5.05;;;;;;;17.74;100.00;100977.84;6207010;28;20086;-86
2022/08/25 02:22:25;;;;;;;8.27;4.28;;;;;;;17.70;100.00;100974.75;6226175;28;20046;-86
2022/08/25 02:25:27;;;;;;;8.90;5.03;;;;;;;17.69;100.00;100978.34;6208858;28;20050;-86
2022/08/25 02:28:29;;;;;;;6.78;4.75;;;;;;;17.65;100.00;100971.78;6198809;28;20217;-86
2022/08/25 02:31:30;;;;;;;6.70;4.97;;;;;;;17.64;100.00;100972.78;6213738;28;20038;-86
2022/08/25 02:34:32;;;;;;;8.48;5.10;;;;;;;17.62;100.00;100967.69;6211665;28;20116;-86
2022/08/25 02:37:34;;;;;;;7.60;5.50;;;;;;;17.59;100.00;100975.03;6213715;28;20042;-86
2022/08/25 02:40:36;;;;;;;6.15;5.18;;;;;;;17.57;100.00;100977.81;6201641;28;20474;-86
2022/08/25 02:43:41;;;;;;;9.00;5.03;;;;;;;17.52;100.00;100971.41;6210034;28;20053;-86
2022/08/25 02:46:42;;;;;;;8.98;4.80;;;;;;;17.51;100.00;100967.94;6222578;28;20064;-86
2022/08/25 02:49:44;;;;;;;9.23;4.93;;;;;;;17.48;100.00;100970.88;6197800;28;20053;-86
2022/08/25 02:52:49;;;;;;;7.22;4.78;;;;;;;17.48;100.00;100975.28;6205483;28;20042;-86
2022/08/25 02:55:51;;;;;;;7.18;5.07;;;;;;;17.48;100.00;100970.88;6217550;28;20048;-86
2022/08/25 02:58:52;;;;;;;10.38;5.22;;;;;;;17.49;100.00;100961.22;6211699;28;20053;-86
2022/08/25 03:01:54;;;;;;;6.38;4.90;;;;;;;17.49;100.00;100966.44;6203484;28;20050;-86
2022/08/25 03:04:56;;;;;;;8.13;4.80;;;;;;;17.46;100.00;100969.38;6216594;28;20054;-86
2022/08/25 03:07:59;;;;;;;8.05;5.05;;;;;;;17.42;100.00;100966.28;6205379;28;20045;-86
2022/08/25 03:11:01;;;;;;;6.95;5.15;;;;;;;17.40;100.00;100968.22;6195053;28;20548;-86
2022/08/25 03:14:05;;;;;;;9.82;5.57;;;;;;;17.38;100.00;100967.53;6201151;28;20555;-86
2022/08/25 03:17:07;;;;;;;8.93;5.15;;;;;;;17.34;100.00;100963.59;6197335;28;20042;-86
2022/08/25 03:20:10;;;;;;;7.65;5.28;;;;;;;17.33;100.00;100959.34;6194917;28;20580;-86
2022/08/25 03:23:11;;;;;;;6.63;5.32;;;;;;;17.30;100.00;100963.09;6205749;28;20097;-86
2022/08/25 03:29:34;;;;;;;10.10;5.68;;;;;;;17.23;100.00;100955.03;6197052;28;20108;-86
2022/08/25 03:32:36;;;;;;;10.75;6.40;;;;;;;17.21;100.00;100962.19;6194614;28;20599;-86
2022/08/25 03:35:38;;;;;;;11.45;6.40;;;;;;;17.19;100.00;100963.31;6199827;28;20065;-87
2022/08/25 03:38:40;;;;;;;9.00;5.85;;;;;;;17.18;100.00;100962.50;6202686;28;20115;-86
2022/08/25 03:41:43;;;;;;;10.07;6.38;;;;;;;17.16;100.00;100955.78;6204135;28;20050;-86
2022/08/25 03:44:44;;;;;;;9.68;6.03;;;;;;;17.14;100.00;100958.59;6223643;28;20045;-86
2022/08/25 03:47:48;;;;;;;10.75;6.43;;;;;;;17.12;100.00;100955.28;6204225;28;20053;-86
2022/08/25 03:50:50;;;;;;;8.35;6.38;;;;;;;17.12;100.00;100955.28;6210037;28;20492;-86
2022/08/25 03:53:54;;;;;;;11.02;5.88;;;;;;;17.10;100.00;100953.81;6204608;28;20496;-86
2022/08/25 03:56:55;;;;;;;9.13;6.10;;;;;;;17.07;100.00;100956.69;6206673;28;20377;-86
2022/08/25 03:59:57;;;;;;;9.60;6.22;;;;;;;17.06;100.00;100957.69;6207857;28;20081;-87
2022/08/25 04:02:59;;;;;;;10.95;6.13;;;;;;;16.99;100.00;100955.69;6200733;28;20057;-86
2022/08/25 04:06:03;;;;;;;10.50;6.38;;;;;;;16.96;100.00;100963.00;6222033;28;20392;-86
2022/08/25 04:09:06;;;;;;;10.10;6.13;;;;;;;16.92;100.00;100959.88;6212623;28;20115;-86
2022/08/25 04:12:08;;;;;;;10.70;6.60;;;;;;;16.91;100.00;100963.47;6204808;28;20045;-86
2022/08/25 04:15:10;;;;;;;10.35;6.38;;;;;;;16.90;100.00;100971.47;6200405;28;20148;-86
2022/08/25 04:18:12;;;;;;;8.73;6.50;;;;;;;16.88;100.00;100960.34;6203407;28;20511;-86
2022/08/25 04:21:16;;;;;;;12.10;6.50;;;;;;;16.87;100.00;100969.13;6206327;28;20117;-86
2022/08/25 04:24:19;;;;;;;11.52;6.25;;;;;;;16.84;100.00;100966.84;6200559;28;20397;-86
2022/08/25 04:27:21;;;;;;;10.73;6.50;;;;;;;16.81;100.00;100964.53;6206289;28;20042;-86
2022/08/25 04:30:22;;;;;;;13.52;6.55;;;;;;;16.81;100.00;100959.31;6210048;28;20049;-87
2022/08/25 04:33:25;;;;;;;10.10;6.43;;;;;;;16.81;100.00;100954.88;6219035;28;20553;-86
2022/08/25 04:36:26;;;;;;;11.93;7.03;;;;;;;16.84;100.00;100948.53;6189769;28;20042;-86
2022/08/25 04:39:29;;;;;;;13.85;6.65;;;;;;;16.88;100.00;100949.88;6198621;28;20335;-86
2022/08/25 04:42:31;;;;;;;10.82;6.75;;;;;;;16.90;100.00;100951.38;6209294;28;20033;-86
2022/08/25 04:45:38;;;;;;;13.55;6.90;;;;;;;16.94;100.00;100949.25;6207969;28;20760;-86
2022/08/25 04:48:40;;;;;;;10.65;6.53;;;;;;;16.95;100.00;100943.88;6209783;28;20053;-86
2022/08/25 04:51:43;;;;;;;9.48;7.18;;;;;;;16.99;100.00;100950.47;6207626;28;20060;-86
2022/08/25 04:54:44;;;;;;;12.15;6.75;;;;;;;17.01;100.00;100947.69;6201899;28;20050;-86
2022/08/25 04:57:46;;;;;;;13.88;7.15;;;;;;;17.03;100.00;100942.31;6202929;28;20144;-86
2022/08/25 05:00:48;;;;;;;9.27;6.85;;;;;;;17.07;100.00;100954.94;6207893;28;20053;-86
2022/08/25 05:03:58;;;;;;;11.52;6.63;;;;;;;17.14;100.00;100952.50;6199095;28;20042;-86
2022/08/25 05:07:00;;;;;;;12.32;7.90;;;;;;;17.18;100.00;100953.84;6201060;28;20161;-86
2022/08/25 05:10:03;;;;;;;13.35;7.32;;;;;;;17.24;100.00;100963.69;6211169;28;20045;-87
2022/08/25 05:13:05;;;;;;;14.13;7.30;;;;;;;17.29;100.00;100960.63;6206649;28;20507;-86
2022/08/25 05:16:07;;;;;;;13.68;8.02;;;;;;;17.32;100.00;100960.31;6213694;28;20038;-86
2022/08/25 05:19:12;;;;;;;13.90;7.43;;;;;;;17.36;100.00;100964.25;6199655;28;20414;-86
2022/08/25 05:22:14;;;;;;;12.75;8.50;;;;;;;17.38;100.00;100964.94;6213857;28;20375;-86
2022/08/25 05:25:17;;;;;;;9.55;7.22;;;;;;;17.41;100.00;100959.38;6205576;28;21393;-86
2022/08/25 05:28:19;;;;;;;12.40;8.00;;;;;;;17.44;100.00;100966.94;6207181;28;20496;-86
2022/08/25 05:31:23;;;;;;;10.10;7.15;;;;;;;17.44;100.00;100959.91;6206383;28;20042;-86
2022/08/25 05:34:25;;;;;;;10.18;7.40;;;;;;;17.47;100.00;100966.63;6209227;28;20046;-86
2022/08/25 05:37:27;;;;;;;13.38;7.75;;;;;;;17.52;100.00;100955.69;6208771;28;20042;-86
2022/08/25 05:40:31;;;;;;;14.45;8.05;;;;;;;17.57;100.00;100956.03;6205194;28;20057;-86
2022/08/25 05:43:35;;;;;;;11.30;7.47;;;;;;;17.62;100.00;100953.78;6214355;28;20158;-86
2022/08/25 05:46:37;;;;;;;15.20;7.75;;;;;;;17.64;100.00;100947.41;6209477;28;20349;-86
2022/08/25 05:49:39;;;;;;;13.10;8.93;;;;;;;17.70;100.00;100953.00;6210137;28;20058;-86
2022/08/25 05:52:41;;;;;;;12.82;7.78;;;;;;;17.74;100.00;100955.13;6213545;28;20125;-86
2022/08/25 05:55:43;;;;;;;13.68;7.93;;;;;;;17.76;100.00;100945.34;6205824;28;20422;-86
2022/08/25 05:58:46;;;;;;;16.20;8.57;;;;;;;17.81;100.00;100944.88;6208295;28;20081;-86
2022/08/25 06:05:12;;;;;;;13.38;8.57;;;;;;;17.92;100.00;100952.44;6222864;28;20464;-86
2022/08/25 06:08:14;;;;;;;13.25;7.90;;;;;;;17.96;100.00;100951.16;6226631;28;20045;-86
2022/08/25 06:11:16;;;;;;;16.40;8.68;;;;;;;18.01;100.00;100948.03;6209486;28;20043;-86
2022/08/25 06:14:19;;;;;;;12.15;8.25;;;;;;;18.05;100.00;100944.13;6208180;28;20048;-86
2022/08/25 06:17:21;;;;;;;15.23;8.73;;;;;;;18.11;100.00;100940.88;6220279;28;20057;-86
2022/08/25 06:20:25;;;;;;;14.60;8.75;;;;;;;18.16;100.00;100940.38;6197266;28;20475;-89
2022/08/25 06:23:27;;;;;;;17.38;9.23;;;;;;;18.23;100.00;100936.16;6208463;28;20235;-86
2022/08/25 06:26:30;;;;;;;11.35;8.60;;;;;;;18.27;100.00;100946.16;6224933;28;20045;-86
2022/08/25 06:29:32;;;;;;;12.45;8.80;;;;;;;18.32;100.00;100950.09;6200153;28;20592;-86
2022/08/25 06:32:37;;;;;;;14.68;9.50;;;;;;;18.39;100.00;100956.34;6199136;28;20042;-86
2022/08/25 06:35:45;;;;;;;14.27;9.35;;;;;;;18.45;100.00;100953.88;6214511;28;20065;-87
2022/08/25 06:38:47;;;;;;;14.57;9.02;;;;;;;18.54;100.00;100951.28;6209479;28;20391;-87
2022/08/25 06:41:53;;;;;;;15.02;9.90;;;;;;;18.61;100.00;100949.66;6209169;28;20050;-86
2022/08/25 06:44:56;;;;;;;12.63;9.55;;;;;;;18.66;100.00;100942.91;6203224;28;20046;-86
2022/08/25 06:47:58;;;;;;;15.38;10.65;;;;;;;18.74;100.00;100939.47;6203752;28;20519;-86
2022/08/25 06:51:04;;;;;;;14.15;9.98;;;;;;;18.82;100.00;100939.50;6209993;28;20739;-87
2022/08/25 06:54:06;;;;;;;15.88;9.65;;;;;;;18.89;100.00;100931.78;6206029;28;20470;-86
2022/08/25 06:57:08;;;;;;;18.17;10.20;;;;;;;18.96;100.00;100943.25;6207031;28;20418;-87
2022/08/25 07:00:11;;;;;;;17.95;10.07;;;;;;;19.01;100.00;100934.91;6227789;28;20133;-87
2022/08/25 07:03:13;;;;;;;14.98;9.70;;;;;;;19.08;100.00;100941.94;6217034;28;20046;-86
2022/08/25 07:06:17;;;;;;;14.57;10.10;;;;;;;19.15;100.00;100936.81;6210543;28;20052;-87
2022/08/25 07:09:19;;;;;;;14.88;11.10;;;;;;;19.26;100.00;100927.78;6203782;28;20081;-87
2022/08/25 07:12:21;;;;;;;17.35;10.82;;;;;;;19.34;100.00;100927.75;6202474;28;20053;-87
2022/08/25 07:15:23;;;;;;;19.77;10.90;;;;;;;19.44;100.00;100920.50;6222214;28;20393;-87
2022/08/25 07:18:25;;;;;;;15.18;10.55;;;;;;;19.56;100.00;100932.28;6207920;28;20129;-86
2022/08/25 07:21:31;;;;;;;15.93;9.70;;;;;;;19.64;100.00;100926.16;6204195;28;20392;-87
2022/08/25 07:24:36;;;;;;;20.33;10.75;;;;;;;19.70;100.00;100925.53;6206966;28;20037;-87
2022/08/25 07:27:38;;;;;;;15.38;10.43;;;;;;;19.79;100.00;100924.50;6204763;28;20534;-87
2022/08/25 07:30:43;;;;;;;18.05;10.50;;;;;;;19.90;100.00;100920.69;6224552;28;20136;-88
2022/08/25 07:37:13;;;;;;;18.70;10.48;;;;;;;20.09;100.00;100929.09;6204336;28;20080;-87
2022/08/25 07:40:37;;;;;;;19.33;11.50;;;;;;;20.20;100.00;100937.41;6193817;28;20537;-87
2022/08/25 07:43:43;;;;;;;15.43;10.23;;;;;;;20.32;100.00;100939.63;6196731;28;20046;-87
2022/08/25 07:46:45;;;;;;;16.77;11.05;;;;;;;20.44;100.00;100932.97;6209108;28;20042;-88
2022/08/25 07:49:47;;;;;;;16.65;10.35;;;;;;;20.56;100.00;100934.22;6202779;28;20125;-88
2022/08/25 07:52:51;;;;;;;16.60;10.77;;;;;;;20.68;100.00;100939.06;6201353;28;20088;-87
2022/08/25 07:56:11;;;;;;;14.48;10.60;;;;;;;20.80;100.00;100938.47;6201028;28;20034;-87
2022/08/25 07:59:13;;;;;;;18.83;10.00;;;;;;;20.93;100.00;100942.31;6202363;28;20041;-87
2022/08/25 08:02:16;;;;;;;23.48;10.57;;;;;;;21.07;100.00;100938.88;6204645;28;20129;-87
2022/08/25 08:05:20;;;;;;;15.80;10.00;;;;;;;21.22;100.00;100944.16;6204673;28;20061;-87
2022/08/25 08:08:24;;;;;;;14.27;11.02;;;;;;;21.30;100.00;100938.78;6214318;28;20064;-87
2022/08/25 08:11:29;;;;;;;15.80;10.40;;;;;;;21.42;100.00;100926.03;6199430;28;20042;-87
2022/08/25 08:14:31;;;;;;;17.13;10.52;;;;;;;21.54;100.00;100929.00;6202082;28;20591;-87
2022/08/25 08:17:33;;;;;;;19.33;11.98;;;;;;;21.64;100.00;100930.38;6212817;28;20057;-87
2022/08/25 08:20:36;;;;;;;16.75;10.68;;;;;;;21.80;100.00;100928.53;6200738;28;20076;-87
2022/08/25 08:23:44;;;;;;;15.90;10.20;;;;;;;21.91;100.00;100928.88;6197426;28;20046;-88
2022/08/25 08:26:46;;;;;;;15.52;9.95;;;;;;;22.03;100.00;100925.72;6199115;28;20520;-88
2022/08/25 08:30:00;;;;;;;17.70;11.15;;;;;;;22.09;100.00;100917.88;6196868;28;20046;-88
2022/08/25 08:33:04;;;;;;;16.05;10.68;;;;;;;22.16;100.00;100923.25;6195308;28;20049;-88
2022/08/25 08:36:12;;;;;;;15.55;10.05;;;;;;;22.25;100.00;100922.13;6206564;28;20078;-88
2022/08/25 08:39:16;;;;;;;15.23;10.35;;;;;;;22.33;99.96;100918.53;6205314;28;20184;-88
2022/08/25 08:42:45;;;;;;;19.45;10.43;;;;;;;22.50;99.61;100921.75;6211332;28;20030;-88
2022/08/25 08:45:55;;;;;;;13.70;9.52;;;;;;;22.63;99.56;100916.56;6207763;28;20049;-88
2022/08/25 08:49:09;;;;;;;12.63;9.73;;;;;;;22.80;98.41;100909.19;6202788;28;20077;-88
2022/08/25 08:52:14;;;;;;;14.30;9.75;;;;;;;22.97;97.24;100909.72;6210440;28;20046;-88
2022/08/25 08:55:26;;;;;;;16.67;10.13;;;;;;;23.16;95.58;100910.88;6195307;28;20144;-88
2022/08/25 08:58:48;;;;;;;16.13;11.18;;;;;;;23.35;95.24;100904.06;6198692;28;20132;-88
2022/08/25 09:01:58;;;;;;;18.77;10.52;;;;;;;23.54;93.74;100900.69;6194437;28;20038;-88
2022/08/25 09:05:07;;;;;;;13.00;10.25;;;;;;;23.63;93.28;100902.16;6196755;28;20491;-88
2022/08/25 09:08:12;;;;;;;15.88;9.40;;;;;;;23.73;92.16;100898.38;6198064;28;20050;-88
2022/08/25 09:11:36;;;;;;;14.25;9.63;;;;;;;23.86;92.35;100899.19;6199424;28;20042;-88
2022/08/25 09:14:56;;;;;;;15.77;9.85;;;;;;;24.05;90.37;100884.41;6207592;28;20389;-89
2022/08/25 09:18:08;;;;;;;17.33;10.27;;;;;;;24.26;89.41;100878.09;6197731;28;20354;-90
2022/08/25 09:21:22;;;;;;;14.23;9.68;;;;;;;24.57;88.88;100886.47;6200226;28;20046;-88
2022/08/25 09:24:40;;;;;;;16.05;10.07;;;;;;;24.85;86.84;100879.13;6197273;28;20038;-90
2022/08/25 09:28:07;;;;;;;12.85;9.45;;;;;;;25.11;85.14;100872.94;6209544;28;20137;-90
2022/08/25 09:31:37;;;;;;;11.90;8.93;;;;;;;25.39;83.78;100874.50;6206515;28;20487;-89
2022/08/25 09:34:40;;;;;;;10.60;9.18;;;;;;;25.53;81.93;100865.44;6204154;28;20054;-90
2022/08/25 09:37:54;;;;;;;16.17;9.25;;;;;;;25.80;81.16;100867.97;6214222;28;20035;-90
2022/08/25 09:41:01;;;;;;;13.00;9.20;;;;;;;26.11;78.77;100859.22;6198769;28;20577;-89
2022/08/25 09:44:04;;;;;;;18.27;10.05;;;;;;;26.05;78.74;100865.38;6213054;28;20041;-89
2022/08/25 09:47:26;;;;;;;15.13;9.23;;;;;;;26.15;78.78;100857.75;6200899;28;20057;-90
2022/08/25 09:50:35;;;;;;;15.90;8.75;;;;;;;26.61;76.27;100861.06;6212391;28;20227;-91
2022/08/25 09:53:49;;;;;;;12.32;8.77;;;;;;;26.77;74.92;100857.03;6202979;28;20057;-90
2022/08/25 09:56:57;;;;;;;11.57;9.23;;;;;;;26.71;74.84;100853.41;6207168;28;20042;-90
2022/08/25 10:00:18;;;;;;;15.25;8.65;;;;;;;26.72;74.90;100854.22;6206409;28;20508;-90
2022/08/25 10:03:21;;;;;;;14.75;9.10;;;;;;;26.86;74.76;100850.41;6226715;28;20056;-90
2022/08/25 10:06:32;;;;;;;15.10;8.63;;;;;;;26.76;73.22;100848.25;6218848;28;20046;-89
2022/08/25 10:09:41;;;;;;;16.00;8.82;;;;;;;26.62;74.27;100847.56;6231844;28;20041;-90
2022/08/25 10:12:45;;;;;;;12.95;8.38;;;;;;;26.79;74.08;100849.66;6213916;28;20514;-90
2022/08/25 10:16:12;;;;;;;17.55;9.07;;;;;;;26.99;72.12;100836.97;6199488;28;20381;-90
2022/08/25 10:19:26;;;;;;;11.83;8.03;;;;;;;26.95;73.44;100838.41;6197903;28;20042;-90
2022/08/25 10:22:31;;;;;;;11.63;8.48;;;;;;;26.68;73.65;100827.28;6205485;28;20070;-90
2022/08/25 10:25:33;;;;;;;10.40;7.78;;;;;;;26.49;72.68;100828.28;6216610;28;20045;-90
2022/08/25 10:28:58;;;;;;;12.50;8.02;;;;;;;26.56;73.48;100818.44;6213042;28;20420;-89
2022/08/25 10:32:24;;;;;;;9.55;7.40;;;;;;;27.01;71.22;100807.50;6170129;28;20476;-90
2022/08/25 10:35:44;;;;;;;12.85;8.15;;;;;;;27.20;70.53;100803.81;6159955;28;20059;-90
2022/08/25 10:39:00;;;;;;;12.02;7.68;;;;;;;27.33;70.16;100796.69;6136650;28;20050;-90
2022/08/25 10:42:22;;;;;;;9.40;8.40;;;;;;;27.61;68.68;100780.94;6162252;28;20055;-90
2022/08/25 10:45:44;;;;;;;9.88;7.63;;;;;;;27.68;68.10;100791.50;6150310;28;20074;-90
2022/08/25 10:49:17;;;;;;;10.95;7.78;;;;;;;27.83;68.13;100783.13;6146445;28;20059;-91
2022/08/25 10:52:41;;;;;;;12.32;8.40;;;;;;;27.96;66.71;100774.91;6148881;28;20099;-90
2022/08/25 10:56:02;;;;;;;14.07;8.23;;;;;;;27.98;66.18;100778.16;6155973;28;20145;-90
2022/08/25 10:59:26;;;;;;;11.77;8.57;;;;;;;28.29;65.67;100763.66;6167379;28;20038;-90
2022/08/25 11:02:56;;;;;;;12.15;8.13;;;;;;;28.84;63.72;100761.63;6175594;28;20073;-90
2022/08/25 11:06:04;;;;;;;9.48;8.05;;;;;;;28.69;63.64;100760.25;6171423;28;20077;-91
2022/08/25 11:09:11;;;;;;;9.70;8.70;;;;;;;28.78;64.75;100748.19;6192268;28;20091;-90
2022/08/25 11:12:21;;;;;;;10.98;7.78;;;;;;;28.90;63.20;100750.84;6220224;28;20389;-90
2022/08/25 11:15:35;;;;;;;13.77;9.15;;;;;;;28.72;64.16;100756.31;6223957;28;20169;-90
2022/08/25 11:18:45;;;;;;;11.27;8.32;;;;;;;28.55;65.04;100735.75;6204007;28;20360;-91
2022/08/25 11:22:26;;;;;;;11.88;8.70;;;;;;;28.53;64.10;100729.06;6200573;28;20095;-90
2022/08/25 11:25:34;;;;;;;11.25;8.38;;;;;;;28.35;65.11;100727.31;6172133;28;20054;-91
2022/08/25 11:29:16;;;;;;;14.30;9.10;;;;;;;28.73;63.07;100721.47;6177568;28;20575;-91
2022/08/25 11:32:21;;;;;;;8.70;7.80;;;;;;;29.18;60.91;100717.25;6120528;29;20166;-91
2022/08/25 11:35:37;;;;;;;10.70;7.38;;;;;;;29.53;60.14;100718.88;6121710;29;20054;-95
2022/08/25 11:39:17;;;;;;;10.07;8.13;;;;;;;29.69;60.01;100723.47;6100300;29;20462;-92
2022/08/25 11:42:50;;;;;;;13.23;8.48;;;;;;;29.32;60.20;100723.09;6112946;29;20134;-91
2022/08/25 11:46:11;;;;;;;10.73;7.97;;;;;;;29.38;61.51;100714.91;6094312;29;20051;-92
2022/08/25 11:49:51;;;;;;;12.05;8.43;;;;;;;29.43;61.35;100711.53;6109622;29;20053;-92
2022/08/25 11:52:56;;;;;;;9.80;7.93;;;;;;;29.68;61.47;100699.66;6118449;29;20066;-93
2022/08/25 11:56:03;;;;;;;8.73;7.45;;;;;;;29.82;60.16;100712.44;6106915;29;20040;-92
2022/08/25 11:59:05;;;;;;;13.23;8.30;;;;;;;29.54;58.81;100696.47;6117698;29;20043;-91
2022/08/25 12:02:26;;;;;;;17.02;8.63;;;;;;;29.18;59.77;100702.03;6135729;28;20390;-92
2022/08/25 12:05:49;;;;;;;11.35;7.88;;;;;;;29.33;60.39;100698.84;6142927;28;20045;-91
2022/08/25 12:09:02;;;;;;;10.40;7.65;;;;;;;29.63;59.11;100701.16;6181111;28;20065;-91
2022/08/25 12:12:30;;;;;;;13.35;7.65;;;;;;;30.09;57.13;100701.06;6215633;28;20083;-91
2022/08/25 12:15:41;;;;;;;10.10;6.85;;;;;;;30.50;57.65;100696.25;6203400;28;20053;-91
2022/08/25 12:18:44;;;;;;;10.50;7.25;;;;;;;30.69;55.65;100689.53;6199242;28;20050;-91
2022/08/25 12:21:47;;;;;;;9.30;6.78;;;;;;;30.92;55.00;100700.22;6211097;28;20038;-91
2022/08/25 12:24:53;;;;;;;10.15;6.53;;;;;;;31.28;52.66;100695.97;6216216;28;20042;-91
2022/08/25 12:28:34;;;;;;;7.90;6.88;;;;;;;31.21;53.18;100696.22;6223790;28;20150;-91
2022/08/25 12:31:58;;;;;;;8.68;6.57;;;;;;;31.38;53.62;100689.91;6201286;28;20050;-91
2022/08/25 12:35:35;;;;;;;12.70;6.95;;;;;;;31.73;51.92;100679.50;6224127;28;20507;-90
2022/08/25 12:38:41;;;;;;;12.05;7.07;;;;;;;31.34;52.10;100674.38;6212109;28;20038;-90
2022/08/25 12:42:01;;;;;;;9.02;6.63;;;;;;;31.12;53.85;100674.44;6205044;28;20054;-91
2022/08/25 12:45:19;;;;;;;11.30;7.30;;;;;;;31.36;53.26;100665.28;6202165;28;20034;-91
2022/08/25 12:48:27;;;;;;;13.85;7.63;;;;;;;32.02;50.56;100662.25;6210049;28;20042;-90
2022/08/25 12:51:47;;;;;;;9.40;7.18;;;;;;;32.61;49.05;100665.44;6207256;28;20045;-91
2022/08/25 12:54:59;;;;;;;12.73;7.43;;;;;;;32.32;48.87;100664.25;6211965;28;20095;-91
2022/08/25 12:58:03;;;;;;;11.77;6.57;;;;;;;32.21;49.34;100657.25;6214096;28;20507;-90
2022/08/25 13:01:24;;;;;;;9.02;6.97;;;;;;;32.63;49.86;100650.97;6216794;28;20054;-90
2022/08/25 13:04:55;;;;;;;9.98;6.82;;;;;;;32.99;47.24;100649.13;6199973;28;20415;-91
2022/08/25 13:08:09;;;;;;;10.10;7.05;;;;;;;32.98;47.17;100642.16;6206442;28;20050;-91
2022/08/25 13:11:57;;;;;;;7.93;6.68;;;;;;;33.23;47.31;100633.31;6197507;28;20045;-91
2022/08/25 13:15:00;;;;;;;11.15;7.28;;;;;;;33.46;46.30;100640.00;6204581;28;20504;-92
2022/08/25 13:18:23;;;;;;;9.52;6.60;;;;;;;33.36;45.24;100631.97;6201556;28;20080;-91
2022/08/25 13:21:38;;;;;;;11.15;6.70;;;;;;;33.37;46.35;100626.34;6194427;28;20042;-91
2022/08/25 13:24:42;;;;;;;11.15;6.68;;;;;;;33.59;45.15;100628.75;6214187;28;20138;-91
2022/08/25 13:28:02;;;;;;;9.50;6.90;;;;;;;33.76;45.44;100623.03;6202022;28;20519;-92
2022/08/25 13:31:09;;;;;;;11.63;6.15;;;;;;;34.07;45.91;100625.59;6220484;28;20064;-91
2022/08/25 13:34:18;;;;;;;8.95;6.50;;;;;;;34.10;44.23;100620.50;6231209;28;20427;-91
2022/08/25 13:37:31;;;;;;;8.63;6.20;;;;;;;33.49;44.88;100614.50;6214169;28;20099;-90
2022/08/25 13:40:35;;;;;;;10.65;6.88;;;;;;;33.17;45.87;100603.03;6203543;28;20057;-92
2022/08/25 13:43:38;;;;;;;8.10;6.85;;;;;;;32.96;44.88;100610.22;6200894;28;20580;-90
2022/08/25 13:46:42;;;;;;;9.13;6.82;;;;;;;32.96;45.19;100610.22;6211755;28;20316;-91
2022/08/25 13:49:46;;;;;;;9.02;6.50;;;;;;;33.00;44.75;100607.84;6207242;28;20146;-91
2022/08/25 13:52:54;;;;;;;10.73;6.07;;;;;;;32.67;46.39;100609.97;6210443;28;20042;-91
2022/08/25 13:55:59;;;;;;;10.80;6.72;;;;;;;32.96;45.90;100609.44;6212620;28;20116;-91
2022/08/25 13:59:05;;;;;;;12.25;6.50;;;;;;;33.56;45.22;100599.72;6210231;28;20046;-96
2022/08/25 14:02:12;;;;;;;11.80;6.22;;;;;;;33.90;43.04;100604.44;6218743;28;20038;-91
2022/08/25 14:05:41;;;;;;;6.72;6.07;;;;;;;34.18;43.06;100594.13;6227101;28;20523;-92
2022/08/25 14:08:58;;;;;;;7.45;6.13;;;;;;;34.13;43.41;100591.47;6203009;28;20053;-91
2022/08/25 14:12:00;;;;;;;9.48;6.07;;;;;;;34.02;44.04;100591.50;6199307;28;20050;-91
2022/08/25 14:15:17;;;;;;;8.57;5.60;;;;;;;34.46;42.90;100592.59;6210314;28;20049;-91
2022/08/25 14:18:24;;;;;;;7.20;6.00;;;;;;;34.17;41.73;100589.84;6212428;28;20173;-91
2022/08/25 14:21:30;;;;;;;6.10;5.40;;;;;;;34.20;42.35;100583.91;6204566;28;20053;-92
2022/08/25 14:24:34;;;;;;;9.63;6.03;;;;;;;34.47;42.81;100575.41;6205604;28;20930;-92
2022/08/25 14:27:43;;;;;;;9.93;6.32;;;;;;;34.74;42.34;100574.97;6195853;28;20225;-92
2022/08/25 14:31:38;;;;;;;9.68;5.70;;;;;;;35.19;41.53;100564.88;6219615;28;20060;-92